createdAt,value
2022-08-01T00:00:52.022Z,0.80
2022-08-01T00:03:19.287Z,0.82
2022-08-01T00:05:47.712Z,0.85
2022-08-01T00:08:14.810Z,1.10
2022-08-01T00:10:42.070Z,0.75
2022-08-01T00:13:09.164Z,0.80
2022-08-01T00:15:37.973Z,0.80
2022-08-01T00:18:05.103Z,0.90
2022-08-01T00:20:32.470Z,0.70
2022-08-01T00:22:59.605Z,0.70
2022-08-01T00:25:33.887Z,0.80
2022-08-01T00:28:04.278Z,0.93
2022-08-01T00:30:32.124Z,0.82
2022-08-01T00:32:59.443Z,0.90
2022-08-01T00:35:26.722Z,0.90
2022-08-01T00:37:53.890Z,0.90
2022-08-01T00:40:21.392Z,0.90
2022-08-01T00:42:48.465Z,0.98
2022-08-01T00:45:15.794Z,1.05
2022-08-01T00:47:43.069Z,0.77
2022-08-01T00:50:11.677Z,1.08
2022-08-01T00:52:41.799Z,0.90
2022-08-01T00:55:14.896Z,0.90
2022-08-01T00:58:05.768Z,0.85
2022-08-01T01:00:30.673Z,1.50
2022-08-01T01:03:00.907Z,1.05
2022-08-01T01:05:28.369Z,0.80
2022-08-01T01:08:09.059Z,0.82
2022-08-01T01:10:49.929Z,1.13
2022-08-01T01:13:28.392Z,1.02
2022-08-01T01:16:08.199Z,1.00
2022-08-01T01:18:51.379Z,1.05
2022-08-01T01:21:18.918Z,0.82
2022-08-01T01:24:02.335Z,1.07
2022-08-01T01:27:16.621Z,1.10
2022-08-01T01:29:58.559Z,1.00
2022-08-01T01:32:40.302Z,1.25
2022-08-01T01:35:15.202Z,1.00
2022-08-01T01:37:44.795Z,0.95
2022-08-01T01:40:13.272Z,1.20
2022-08-01T01:42:42.875Z,1.10
2022-08-01T01:45:10.789Z,1.05
2022-08-01T01:47:40.237Z,1.10
2022-08-01T01:50:10.209Z,1.10
2022-08-01T01:52:41.180Z,1.10
2022-08-01T01:55:10.234Z,1.10
2022-08-01T01:57:42.095Z,1.20
2022-08-01T02:00:12.655Z,1.10
2022-08-01T02:02:40.889Z,1.00
2022-08-01T02:05:12.380Z,0.90
2022-08-01T02:07:41.220Z,1.13
2022-08-01T02:10:09.889Z,1.20
2022-08-01T02:12:40.711Z,1.00
2022-08-01T02:15:10.428Z,1.15
2022-08-01T02:17:44.984Z,1.10
2022-08-01T02:20:13.257Z,1.00
2022-08-01T02:26:09.678Z,1.02
2022-08-01T02:28:49.357Z,1.20
2022-08-01T02:31:22.106Z,1.10
2022-08-01T02:34:03.380Z,1.20
2022-08-01T02:36:35.260Z,1.00
2022-08-01T02:41:42.189Z,0.80
2022-08-01T02:44:12.843Z,1.08
2022-08-01T02:46:54.254Z,1.20
2022-08-01T02:49:23.852Z,1.30
2022-08-01T02:51:52.760Z,1.05
2022-08-01T02:54:22.817Z,1.00
2022-08-01T02:56:51.900Z,1.15
2022-08-01T02:59:26.564Z,0.98
2022-08-01T03:01:56.871Z,1.30
2022-08-01T03:04:26.051Z,1.10
2022-08-01T03:06:56.522Z,1.20
2022-08-01T03:09:24.455Z,1.20
2022-08-01T03:11:53.818Z,1.05
2022-08-01T03:14:23.543Z,1.10
2022-08-01T03:16:54.459Z,1.30
2022-08-01T03:19:24.616Z,1.30
2022-08-01T03:21:53.200Z,1.10
2022-08-01T03:24:23.077Z,1.30
2022-08-01T03:26:52.037Z,1.15
2022-08-01T03:29:25.805Z,1.33
2022-08-01T03:31:53.990Z,1.52
2022-08-01T03:34:24.412Z,1.40
2022-08-01T03:37:31.961Z,1.30
2022-08-01T03:40:23.809Z,1.40
2022-08-01T03:42:59.675Z,1.20
2022-08-01T03:45:33.751Z,1.55
2022-08-01T03:48:06.554Z,1.50
2022-08-01T03:50:37.231Z,1.55
2022-08-01T03:53:07.534Z,1.23
2022-08-01T03:55:38.456Z,1.45
2022-08-01T03:58:09.752Z,1.50
2022-08-01T04:00:41.778Z,1.58
2022-08-01T04:03:10.234Z,1.20
2022-08-01T04:05:37.807Z,1.58
2022-08-01T04:08:05.435Z,1.50
2022-08-01T04:10:32.882Z,1.30
2022-08-01T04:13:00.951Z,1.38
2022-08-01T04:15:28.386Z,1.48
2022-08-01T04:17:55.619Z,1.40
2022-08-01T04:20:23.022Z,1.60
2022-08-01T04:22:50.469Z,1.50
2022-08-01T04:25:28.053Z,1.60
2022-08-01T04:27:56.549Z,1.50
2022-08-01T04:30:35.167Z,1.45
2022-08-01T04:33:06.720Z,1.67
2022-08-01T04:36:01.364Z,1.50
2022-08-01T04:38:28.458Z,1.50
2022-08-01T04:40:57.957Z,1.80
2022-08-01T04:43:25.300Z,1.52
2022-08-01T04:45:53.290Z,1.40
2022-08-01T04:48:22.889Z,1.42
2022-08-01T04:50:51.104Z,1.30
2022-08-01T04:53:23.085Z,1.58
2022-08-01T04:55:50.796Z,1.65
2022-08-01T04:58:18.954Z,1.73
2022-08-01T05:00:48.010Z,1.55
2022-08-01T05:03:15.413Z,1.83
2022-08-01T05:05:42.661Z,1.50
2022-08-01T05:08:09.856Z,1.50
2022-08-01T05:10:37.162Z,1.58
2022-08-01T05:13:04.353Z,1.60
2022-08-01T05:15:32.042Z,1.40
2022-08-01T05:17:59.462Z,1.30
2022-08-01T05:20:26.658Z,1.35
2022-08-01T05:22:53.871Z,1.30
2022-08-01T05:25:54.360Z,1.42
2022-08-01T05:28:08.252Z,1.40
2022-08-01T05:30:35.700Z,1.17
2022-08-01T05:33:02.917Z,1.33
2022-08-01T05:35:48.381Z,1.30
2022-08-01T05:38:17.094Z,1.40
2022-08-01T05:40:45.472Z,1.40
2022-08-01T05:43:12.629Z,1.35
2022-08-01T05:45:39.988Z,1.15
2022-08-01T05:48:07.254Z,1.38
2022-08-01T05:50:35.114Z,1.17
2022-08-01T05:53:02.312Z,1.30
2022-08-01T05:55:29.638Z,1.00
2022-08-01T05:57:56.837Z,1.13
2022-08-01T06:00:24.203Z,1.20
2022-08-01T06:02:51.281Z,1.10
2022-08-01T06:05:18.539Z,1.10
2022-08-01T06:07:45.734Z,1.10
2022-08-01T06:10:12.904Z,1.20
2022-08-01T06:12:40.227Z,1.30
2022-08-01T06:15:08.782Z,1.00
2022-08-01T06:17:36.063Z,1.08
2022-08-01T06:20:04.541Z,1.30
2022-08-01T06:22:31.780Z,1.17
2022-08-01T06:25:00.030Z,0.85
2022-08-01T06:27:27.210Z,1.10
2022-08-01T06:29:54.639Z,1.13
2022-08-01T06:32:26.433Z,1.20
2022-08-01T06:34:56.422Z,1.08
2022-08-01T06:37:24.341Z,1.00
2022-08-01T06:39:51.678Z,1.17
2022-08-01T06:42:19.078Z,1.00
2022-08-01T06:44:46.679Z,1.20
2022-08-01T06:47:13.994Z,1.10
2022-08-01T06:49:41.323Z,0.90
2022-08-01T06:52:08.997Z,1.00
2022-08-01T06:54:36.801Z,1.05
2022-08-01T06:57:06.916Z,1.00
2022-08-01T06:59:34.596Z,1.10
2022-08-01T07:02:02.644Z,1.30
2022-08-01T07:04:30.306Z,1.20
2022-08-01T07:06:58.298Z,1.10
2022-08-01T07:09:25.850Z,1.25
2022-08-01T07:11:54.317Z,1.17
2022-08-01T07:14:23.301Z,1.30
2022-08-01T07:16:51.134Z,1.27
2022-08-01T07:19:19.051Z,1.00
2022-08-01T07:21:46.504Z,1.10
2022-08-01T07:24:17.253Z,1.20
2022-08-01T07:26:53.306Z,1.20
2022-08-01T07:29:26.101Z,1.40
2022-08-01T07:31:58.535Z,1.00
2022-08-01T07:34:27.148Z,1.30
2022-08-01T07:36:54.687Z,1.13
2022-08-01T07:39:22.356Z,1.08
2022-08-01T07:42:06.378Z,1.10
2022-08-01T07:44:36.435Z,1.10
2022-08-01T07:47:04.324Z,1.40
2022-08-01T07:49:33.900Z,1.10
2022-08-01T07:52:05.151Z,1.30
2022-08-01T07:54:34.576Z,1.10
2022-08-01T07:57:03.682Z,1.00
2022-08-01T07:59:31.207Z,1.20
2022-08-01T08:01:58.659Z,1.20
2022-08-01T08:04:26.916Z,1.15
2022-08-01T08:06:54.727Z,1.20
2022-08-01T08:09:22.491Z,1.02
2022-08-01T08:11:49.882Z,1.08
2022-08-01T08:14:20.858Z,1.08
2022-08-01T08:16:48.458Z,1.20
2022-08-01T08:19:15.702Z,1.20
2022-08-01T08:21:43.219Z,1.20
2022-08-01T08:24:25.915Z,1.20
2022-08-01T08:26:59.685Z,1.00
2022-08-01T08:29:30.726Z,1.20
2022-08-01T08:31:59.390Z,1.10
2022-08-01T08:34:28.899Z,1.05
2022-08-01T08:36:57.407Z,1.10
2022-08-01T08:39:27.782Z,1.00
2022-08-01T08:41:55.092Z,1.10
2022-08-01T08:44:22.360Z,1.20
2022-08-01T08:46:52.443Z,1.35
2022-08-01T08:49:26.674Z,1.00
2022-08-01T08:51:54.935Z,0.90
2022-08-01T08:54:30.992Z,1.30
2022-08-01T08:57:01.444Z,1.10
2022-08-01T08:59:29.519Z,1.40
2022-08-01T09:01:58.376Z,1.40
2022-08-01T09:04:27.508Z,1.20
2022-08-01T09:06:55.936Z,1.20
2022-08-01T09:09:24.692Z,1.10
2022-08-01T09:11:57.609Z,1.30
2022-08-01T09:14:31.142Z,1.20
2022-08-01T09:17:07.787Z,1.10
2022-08-01T09:19:48.813Z,1.05
2022-08-01T09:22:22.135Z,1.30
2022-08-01T09:25:08.686Z,1.00
2022-08-01T09:27:44.236Z,1.10
2022-08-01T09:30:23.657Z,1.17
2022-08-01T09:33:11.512Z,0.95
2022-08-01T09:35:57.370Z,1.52
2022-08-01T09:38:29.443Z,3.40
2022-08-01T09:41:01.386Z,2.00
2022-08-01T09:43:32.105Z,2.03
2022-08-01T09:46:03.418Z,1.40
2022-08-01T09:48:32.927Z,1.15
2022-08-01T09:51:07.349Z,1.02
2022-08-01T09:53:52.027Z,1.05
2022-08-01T09:56:22.867Z,1.20
2022-08-01T09:58:56.210Z,1.33
2022-08-01T10:01:27.255Z,1.20
2022-08-01T10:04:15.216Z,1.25
2022-08-01T10:06:46.729Z,1.13
2022-08-01T10:09:15.424Z,1.35
2022-08-01T10:11:44.998Z,1.13
2022-08-01T10:14:18.173Z,1.17
2022-08-01T10:16:53.223Z,1.00
2022-08-01T10:19:33.806Z,1.20
2022-08-01T10:22:02.525Z,1.33
2022-08-01T10:24:32.039Z,1.27
2022-08-01T10:27:09.178Z,1.20
2022-08-01T10:30:14.076Z,0.95
2022-08-01T10:32:51.338Z,1.15
2022-08-01T10:35:45.796Z,1.10
2022-08-01T10:38:10.583Z,1.00
2022-08-01T10:40:45.352Z,0.80
2022-08-01T10:43:21.525Z,1.10
2022-08-01T10:45:51.378Z,1.10
2022-08-01T10:48:44.164Z,1.00
2022-08-01T10:51:17.743Z,0.80
2022-08-01T10:53:56.969Z,0.70
2022-08-01T10:56:48.961Z,0.80
2022-08-01T10:59:51.173Z,1.00
2022-08-01T11:02:32.309Z,1.00
2022-08-01T11:05:11.210Z,0.90
2022-08-01T11:10:28.860Z,1.00
2022-08-01T11:12:56.057Z,1.00
2022-08-01T11:15:31.162Z,0.85
2022-08-01T11:18:01.795Z,0.80
2022-08-01T11:20:34.556Z,1.02
2022-08-01T11:23:05.162Z,0.80
2022-08-01T11:26:05.329Z,0.90
2022-08-01T11:28:30.263Z,0.90
2022-08-01T11:31:11.904Z,1.00
2022-08-01T11:33:46.715Z,1.00
2022-08-01T11:36:15.527Z,0.90
2022-08-01T11:38:59.014Z,0.90
2022-08-01T11:41:38.952Z,0.70
2022-08-01T11:44:20.860Z,0.90
2022-08-01T11:47:11.630Z,1.00
2022-08-01T11:49:49.081Z,1.10
2022-08-01T11:52:29.671Z,0.88
2022-08-01T11:55:03.730Z,1.08
2022-08-01T11:57:36.219Z,0.77
2022-08-01T12:00:18.976Z,0.80
2022-08-01T12:02:48.184Z,0.70
2022-08-01T12:05:24.734Z,0.90
2022-08-01T12:07:53.692Z,0.80
2022-08-01T12:10:23.979Z,0.80
2022-08-01T12:12:58.658Z,0.95
2022-08-01T12:15:31.306Z,0.90
2022-08-01T12:18:01.676Z,0.85
2022-08-01T12:20:35.982Z,1.08
2022-08-01T12:23:10.208Z,0.88
2022-08-01T12:25:40.902Z,0.73
2022-08-01T12:28:10.260Z,1.00
2022-08-01T12:30:40.154Z,0.70
2022-08-01T12:33:10.653Z,0.90
2022-08-01T12:35:39.733Z,0.73
2022-08-01T12:38:15.752Z,0.85
2022-08-01T12:40:46.020Z,0.80
2022-08-01T12:43:27.408Z,0.80
2022-08-01T12:45:58.551Z,0.90
2022-08-01T12:48:27.341Z,0.65
2022-08-01T12:50:58.646Z,0.80
2022-08-01T12:56:07.487Z,0.90
2022-08-01T12:58:37.046Z,1.00
2022-08-01T13:01:08.271Z,0.80
2022-08-01T13:03:36.661Z,0.80
2022-08-01T13:06:13.619Z,0.90
2022-08-01T13:08:41.394Z,0.70
2022-08-01T13:11:19.192Z,0.73
2022-08-01T13:13:51.940Z,0.70
2022-08-01T13:16:30.202Z,0.90
2022-08-01T13:19:01.932Z,0.82
2022-08-01T13:21:52.444Z,0.77
2022-08-01T13:24:26.966Z,0.70
2022-08-01T13:27:04.661Z,0.80
2022-08-01T13:29:46.372Z,0.73
2022-08-01T13:32:29.750Z,0.68
2022-08-01T13:35:09.139Z,0.70
2022-08-01T13:37:42.476Z,0.70
2022-08-01T13:40:11.754Z,0.68
2022-08-01T13:42:39.614Z,0.88
2022-08-01T13:45:14.607Z,0.80
2022-08-01T13:48:12.524Z,0.68
2022-08-01T13:50:31.661Z,0.60
2022-08-01T13:52:58.824Z,0.70
2022-08-01T13:55:27.950Z,0.80
2022-08-01T13:57:57.192Z,0.80
2022-08-01T14:00:24.502Z,0.80
2022-08-01T14:02:51.653Z,0.82
2022-08-01T14:05:19.099Z,0.90
2022-08-01T14:07:48.681Z,0.98
2022-08-01T14:10:19.936Z,0.93
2022-08-01T14:15:37.369Z,0.82
2022-08-01T14:18:08.021Z,0.80
2022-08-01T14:20:38.389Z,0.82
2022-08-01T14:23:08.614Z,0.70
2022-08-01T14:26:02.661Z,0.90
2022-08-01T14:28:29.496Z,0.88
2022-08-01T14:30:58.247Z,0.73
2022-08-01T14:33:25.880Z,0.85
2022-08-01T14:36:06.756Z,0.70
2022-08-01T14:38:40.643Z,0.60
2022-08-01T14:41:07.857Z,0.95
2022-08-01T14:43:34.965Z,0.82
2022-08-01T14:46:04.564Z,0.80
2022-08-01T14:48:32.685Z,0.80
2022-08-01T14:51:03.715Z,0.63
2022-08-01T14:53:35.918Z,0.65
2022-08-01T14:56:07.923Z,0.68
2022-08-01T14:58:35.238Z,0.60
2022-08-01T15:01:02.823Z,0.70
2022-08-01T15:03:30.022Z,0.88
2022-08-01T15:05:57.313Z,0.77
2022-08-01T15:08:24.526Z,0.80
2022-08-01T15:10:52.390Z,0.90
2022-08-01T15:13:19.493Z,0.95
2022-08-01T15:15:46.729Z,0.70
2022-08-01T15:18:14.041Z,0.70
2022-08-01T15:20:41.893Z,0.73
2022-08-01T15:23:09.170Z,0.55
2022-08-01T15:25:40.361Z,0.60
2022-08-01T15:28:13.093Z,0.60
2022-08-01T15:30:40.854Z,0.60
2022-08-01T15:33:08.536Z,0.70
2022-08-01T15:35:36.245Z,0.70
2022-08-01T15:38:03.791Z,0.63
2022-08-01T15:40:35.436Z,0.60
2022-08-01T15:43:03.774Z,0.60
2022-08-01T15:45:47.363Z,0.55
2022-08-01T15:48:15.200Z,0.70
2022-08-01T15:50:42.449Z,0.60
2022-08-01T15:53:09.756Z,0.60
2022-08-01T15:55:38.474Z,0.65
2022-08-01T15:58:06.142Z,0.50
2022-08-01T16:00:39.416Z,0.40
2022-08-01T16:03:10.685Z,0.63
2022-08-01T16:05:43.567Z,0.50
2022-08-01T16:08:13.167Z,0.50
2022-08-01T16:10:40.561Z,0.60
2022-08-01T16:13:08.050Z,0.55
2022-08-01T16:15:37.635Z,0.43
2022-08-01T16:18:12.652Z,0.50
2022-08-01T16:20:45.061Z,0.50
2022-08-01T16:23:14.977Z,0.80
2022-08-01T16:25:43.846Z,0.30
2022-08-01T16:28:11.284Z,0.50
2022-08-01T16:30:56.095Z,0.47
2022-08-01T16:33:42.910Z,0.50
2022-08-01T16:36:16.600Z,0.50
2022-08-01T16:38:45.092Z,0.55
2022-08-01T16:41:19.406Z,0.40
2022-08-01T16:43:53.745Z,0.70
2022-08-01T16:46:26.936Z,0.50
2022-08-01T16:48:54.955Z,0.60
2022-08-01T16:51:22.246Z,0.40
2022-08-01T16:53:49.443Z,0.55
2022-08-01T16:56:16.643Z,0.40
2022-08-01T16:58:43.825Z,0.35
2022-08-01T17:01:59.032Z,0.57
2022-08-01T17:04:01.545Z,0.50
2022-08-01T17:06:30.330Z,0.45
2022-08-01T17:08:57.590Z,0.40
2022-08-01T17:11:24.933Z,0.50
2022-08-01T17:13:52.350Z,0.40
2022-08-01T17:16:20.172Z,0.47
2022-08-01T17:18:47.286Z,0.35
2022-08-01T17:21:15.004Z,0.38
2022-08-01T17:23:42.117Z,0.50
2022-08-01T17:26:09.416Z,0.40
2022-08-01T17:28:36.569Z,0.40
2022-08-01T17:31:03.947Z,0.40
2022-08-01T17:33:45.421Z,0.60
2022-08-01T17:36:17.856Z,0.43
2022-08-01T17:38:45.151Z,0.60
2022-08-01T17:41:12.256Z,0.50
2022-08-01T17:43:39.612Z,0.43
2022-08-01T17:46:06.908Z,0.63
2022-08-01T17:48:34.203Z,0.40
2022-08-01T17:51:01.380Z,0.50
2022-08-01T17:53:28.791Z,0.57
2022-08-01T17:55:58.801Z,0.40
2022-08-01T17:58:49.102Z,0.50
2022-08-01T18:01:16.959Z,0.47
2022-08-01T18:03:45.339Z,0.63
2022-08-01T18:06:14.463Z,0.50
2022-08-01T18:08:44.023Z,0.50
2022-08-01T18:11:11.685Z,0.50
2022-08-01T18:13:40.780Z,0.70
2022-08-01T18:16:11.279Z,0.68
2022-08-01T18:18:39.224Z,0.70
2022-08-01T18:21:08.043Z,0.52
2022-08-01T18:23:36.253Z,0.60
2022-08-01T18:26:07.616Z,0.70
2022-08-01T18:28:41.778Z,0.63
2022-08-01T18:31:16.717Z,0.68
2022-08-01T18:33:44.581Z,0.60
2022-08-01T18:36:17.784Z,0.60
2022-08-01T18:39:00.056Z,0.60
2022-08-01T18:41:27.329Z,0.50
2022-08-01T18:44:07.630Z,0.50
2022-08-01T18:46:39.424Z,0.70
2022-08-01T18:49:09.487Z,0.60
2022-08-01T18:51:42.963Z,0.45
2022-08-01T18:54:12.231Z,0.47
2022-08-01T18:56:39.417Z,0.50
2022-08-01T18:59:06.878Z,0.50
2022-08-01T19:01:34.265Z,0.60
2022-08-01T19:04:01.850Z,0.60
2022-08-01T19:06:29.071Z,0.90
2022-08-01T19:09:01.859Z,0.63
2022-08-01T19:11:34.674Z,0.60
2022-08-01T19:14:03.322Z,0.50
2022-08-01T19:16:31.239Z,0.50
2022-08-01T19:18:58.874Z,0.70
2022-08-01T19:21:26.580Z,0.60
2022-08-01T19:24:12.498Z,0.80
2022-08-01T19:26:51.197Z,0.60
2022-08-01T19:29:35.644Z,0.60
2022-08-01T19:32:06.920Z,0.52
2022-08-01T19:34:42.562Z,0.55
2022-08-01T19:37:10.274Z,0.40
2022-08-01T19:39:37.710Z,0.40
2022-08-01T19:42:05.667Z,0.50
2022-08-01T19:44:33.959Z,0.50
2022-08-01T19:47:02.052Z,0.50
2022-08-01T19:49:29.530Z,0.40
2022-08-01T19:52:03.844Z,0.80
2022-08-01T19:54:40.363Z,0.60
2022-08-01T19:57:09.076Z,0.40
2022-08-01T19:59:37.130Z,0.40
2022-08-01T20:02:06.311Z,0.40
2022-08-01T20:04:34.657Z,0.40
2022-08-01T20:07:03.352Z,0.40
2022-08-01T20:09:32.055Z,0.50
2022-08-01T20:11:59.350Z,0.40
2022-08-01T20:14:27.684Z,0.50
2022-08-01T20:16:56.333Z,0.40
2022-08-01T20:19:25.740Z,0.45
2022-08-01T20:22:04.601Z,0.40
2022-08-01T20:24:47.988Z,0.32
2022-08-01T20:27:15.854Z,0.40
2022-08-01T20:29:45.173Z,0.50
2022-08-01T20:32:13.208Z,0.40
2022-08-01T20:34:48.848Z,0.50
2022-08-01T20:38:03.293Z,0.40
2022-08-01T20:40:12.360Z,0.30
2022-08-01T20:42:40.406Z,0.50
2022-08-01T20:45:07.977Z,0.40
2022-08-01T20:47:39.762Z,0.40
2022-08-01T20:50:26.896Z,0.50
2022-08-01T20:53:13.678Z,0.47
2022-08-01T20:55:43.910Z,0.63
2022-08-01T20:58:16.501Z,0.40
2022-08-01T21:00:45.659Z,0.35
2022-08-01T21:03:26.390Z,0.50
2022-08-01T21:06:11.767Z,0.50
2022-08-01T21:08:44.860Z,0.40
2022-08-01T21:11:21.313Z,0.32
2022-08-01T21:13:51.068Z,0.40
2022-08-01T21:16:28.070Z,0.50
2022-08-01T21:19:20.507Z,0.65
2022-08-01T21:22:20.018Z,0.43
2022-08-01T21:25:04.411Z,0.50
2022-08-01T21:27:34.763Z,0.60
2022-08-01T21:30:09.050Z,0.50
2022-08-01T21:32:37.702Z,0.50
2022-08-01T21:35:15.939Z,0.55
2022-08-01T21:37:51.830Z,0.52
2022-08-01T21:40:22.853Z,0.43
2022-08-01T21:42:53.393Z,0.40
2022-08-01T21:45:24.712Z,0.47
2022-08-01T21:47:52.630Z,0.40
2022-08-01T21:50:20.595Z,0.60
2022-08-01T21:52:59.278Z,0.60
2022-08-01T21:55:51.750Z,0.50
2022-08-01T21:58:39.109Z,0.55
2022-08-01T22:01:53.147Z,0.60
2022-08-01T22:04:43.664Z,0.45
2022-08-01T22:07:15.095Z,0.40
2022-08-01T22:09:48.828Z,0.50
2022-08-01T22:12:18.385Z,0.68
2022-08-01T22:14:49.894Z,0.60
2022-08-01T22:17:26.270Z,0.60
2022-08-01T22:19:55.318Z,0.57
2022-08-01T22:22:50.652Z,0.60
2022-08-01T22:25:12.257Z,0.40
2022-08-01T22:28:08.096Z,0.50
2022-08-01T22:30:29.462Z,0.55
2022-08-01T22:33:15.350Z,0.55
2022-08-01T22:35:50.436Z,0.65
2022-08-01T22:38:20.301Z,0.60
2022-08-01T22:41:14.701Z,0.60
2022-08-01T22:43:56.836Z,0.70
2022-08-01T22:49:54.289Z,0.57
2022-08-01T22:52:29.146Z,0.60
2022-08-01T22:55:09.396Z,0.60
2022-08-01T22:57:50.709Z,0.70
2022-08-01T23:00:18.676Z,0.50
2022-08-01T23:02:54.634Z,0.60
2022-08-01T23:05:25.455Z,0.65
2022-08-01T23:07:55.551Z,0.88
2022-08-01T23:10:26.167Z,0.63
2022-08-01T23:12:55.745Z,0.73
2022-08-01T23:15:25.121Z,0.70
2022-08-01T23:17:52.982Z,0.60
2022-08-01T23:20:20.234Z,0.77
2022-08-01T23:22:48.133Z,0.70
2022-08-01T23:25:17.318Z,0.77
2022-08-01T23:27:51.718Z,0.80
2022-08-01T23:30:34.895Z,0.70
2022-08-01T23:33:02.361Z,0.70
2022-08-01T23:35:30.644Z,0.80
2022-08-01T23:38:02.794Z,0.90
2022-08-01T23:40:32.565Z,0.85
2022-08-01T23:43:01.439Z,0.70
2022-08-01T23:45:36.129Z,0.80
2022-08-01T23:48:16.383Z,0.90
2022-08-01T23:50:44.000Z,0.65
2022-08-01T23:53:11.263Z,0.68
2022-08-01T23:55:40.576Z,0.80
2022-08-01T23:58:10.777Z,0.60
